createdAt,value
2024-02-15T00:01:20.256Z,1.50
2024-02-15T00:03:48.486Z,1.80
2024-02-15T00:06:15.458Z,1.80
2024-02-15T00:08:42.265Z,1.30
2024-02-15T00:11:09.135Z,1.63
2024-02-15T00:13:36.135Z,1.83
2024-02-15T00:16:03.158Z,1.50
2024-02-15T00:18:30.113Z,2.27
2024-02-15T00:20:58.459Z,2.07
2024-02-15T00:23:25.308Z,2.00
2024-02-15T00:25:52.356Z,2.20
2024-02-15T00:28:19.163Z,2.00
2024-02-15T00:30:46.008Z,2.50
2024-02-15T00:33:12.958Z,2.13
2024-02-15T00:35:40.150Z,1.80
2024-02-15T00:38:08.788Z,2.53
2024-02-15T00:40:35.653Z,2.50
2024-02-15T00:43:02.417Z,2.70
2024-02-15T00:45:29.300Z,2.13
2024-02-15T00:47:56.180Z,2.63
2024-02-15T00:50:23.195Z,2.50
2024-02-15T00:52:49.998Z,3.10
2024-02-15T00:55:18.304Z,1.93
2024-02-15T00:57:45.175Z,2.20
2024-02-15T01:00:13.059Z,2.73
2024-02-15T01:02:39.875Z,2.43
2024-02-15T01:05:07.010Z,2.10
2024-02-15T01:07:33.794Z,2.90
2024-02-15T01:10:00.607Z,2.17
2024-02-15T01:12:28.713Z,2.50
2024-02-15T01:14:55.585Z,2.13
2024-02-15T01:17:22.446Z,1.73
2024-02-15T01:19:49.535Z,2.23
2024-02-15T01:22:17.350Z,2.17
2024-02-15T01:24:44.180Z,1.90
2024-02-15T01:27:11.013Z,1.73
2024-02-15T01:29:39.177Z,1.80
2024-02-15T01:32:06.670Z,2.10
2024-02-15T01:34:33.599Z,2.00
2024-02-15T01:37:00.468Z,2.30
2024-02-15T01:39:27.274Z,1.87
2024-02-15T01:41:54.058Z,2.00
2024-02-15T01:44:20.945Z,1.80
2024-02-15T01:46:50.508Z,1.80
2024-02-15T01:49:17.670Z,1.50
2024-02-15T01:51:45.394Z,1.80
2024-02-15T01:54:21.081Z,1.40
2024-02-15T01:56:48.159Z,1.53
2024-02-15T01:59:16.643Z,1.40
2024-02-15T02:01:43.665Z,1.77
2024-02-15T02:04:11.853Z,1.53
2024-02-15T02:06:38.880Z,1.40
2024-02-15T02:09:05.999Z,1.33
2024-02-15T02:11:32.911Z,1.60
2024-02-15T02:13:59.871Z,1.50
2024-02-15T02:16:27.367Z,1.30
2024-02-15T02:18:55.268Z,1.77
2024-02-15T02:21:24.312Z,1.50
2024-02-15T02:23:54.489Z,1.40
2024-02-15T02:26:23.642Z,1.40
2024-02-15T02:28:50.732Z,1.03
2024-02-15T02:31:17.643Z,1.10
2024-02-15T02:33:49.421Z,1.43
2024-02-15T02:36:16.389Z,2.00
2024-02-15T02:38:43.294Z,1.67
2024-02-15T02:41:10.073Z,1.10
2024-02-15T02:43:38.172Z,1.60
2024-02-15T02:46:04.986Z,1.40
2024-02-15T02:48:31.965Z,1.10
2024-02-15T02:50:58.992Z,1.70
2024-02-15T02:53:25.827Z,1.20
2024-02-15T02:55:52.807Z,1.10
2024-02-15T02:58:19.557Z,1.50
2024-02-15T03:00:47.726Z,0.83
2024-02-15T03:03:14.640Z,1.33
2024-02-15T03:05:41.594Z,1.30
2024-02-15T03:08:09.813Z,1.40
2024-02-15T03:10:36.596Z,0.97
2024-02-15T03:13:03.344Z,1.30
2024-02-15T03:15:30.123Z,1.30
2024-02-15T03:17:58.351Z,1.83
2024-02-15T03:20:26.036Z,1.50
2024-02-15T03:22:54.055Z,1.80
2024-02-15T03:25:21.012Z,1.67
2024-02-15T03:27:47.840Z,1.23
2024-02-15T03:30:14.853Z,1.27
2024-02-15T03:32:41.786Z,1.10
2024-02-15T03:35:10.832Z,1.20
2024-02-15T03:37:37.562Z,1.00
2024-02-15T03:40:05.343Z,1.13
2024-02-15T03:42:32.098Z,1.50
2024-02-15T03:44:58.880Z,1.30
2024-02-15T03:47:25.652Z,1.03
2024-02-15T03:49:52.494Z,1.27
2024-02-15T03:52:20.784Z,1.17
2024-02-15T03:54:47.533Z,1.40
2024-02-15T03:57:14.323Z,1.03
2024-02-15T03:59:41.214Z,1.70
2024-02-15T04:02:08.071Z,1.40
2024-02-15T04:04:34.895Z,1.23
2024-02-15T04:07:01.800Z,0.80
2024-02-15T04:09:30.037Z,0.90
2024-02-15T04:11:56.820Z,1.13
2024-02-15T04:14:23.688Z,0.80
2024-02-15T04:16:50.487Z,1.30
2024-02-15T04:19:17.412Z,1.00
2024-02-15T04:21:44.256Z,1.30
2024-02-15T04:24:11.080Z,1.30
2024-02-15T04:26:39.730Z,1.20
2024-02-15T04:29:09.523Z,1.37
2024-02-15T04:31:36.532Z,0.93
2024-02-15T04:34:03.513Z,1.40
2024-02-15T04:36:30.341Z,1.43
2024-02-15T04:38:57.190Z,1.03
2024-02-15T04:41:23.917Z,1.00
2024-02-15T04:43:52.446Z,1.30
2024-02-15T04:46:19.581Z,1.30
2024-02-15T04:48:46.332Z,1.20
2024-02-15T04:51:13.294Z,1.17
2024-02-15T04:53:40.178Z,1.67
2024-02-15T04:56:07.310Z,1.30
2024-02-15T04:58:34.117Z,0.97
2024-02-15T05:01:02.203Z,1.30
2024-02-15T05:03:29.058Z,1.40
2024-02-15T05:05:55.896Z,1.37
2024-02-15T05:08:22.623Z,1.70
2024-02-15T05:10:49.316Z,1.33
2024-02-15T05:13:16.040Z,1.63
2024-02-15T05:15:43.001Z,1.30
2024-02-15T05:18:11.199Z,1.03
2024-02-15T05:20:38.121Z,1.10
2024-02-15T05:23:04.874Z,1.30
2024-02-15T05:25:31.656Z,1.33
2024-02-15T05:27:58.620Z,1.07
2024-02-15T05:30:26.139Z,1.40
2024-02-15T05:32:53.448Z,1.40
2024-02-15T05:35:21.792Z,1.30
2024-02-15T05:37:48.646Z,1.10
2024-02-15T05:40:15.527Z,1.80
2024-02-15T05:42:43.363Z,1.37
2024-02-15T05:45:30.286Z,1.47
2024-02-15T05:47:57.196Z,1.53
2024-02-15T05:50:28.495Z,1.30
2024-02-15T05:52:55.249Z,1.40
2024-02-15T05:55:22.044Z,1.20
2024-02-15T05:57:48.803Z,1.53
2024-02-15T06:00:22.038Z,1.33
2024-02-15T06:02:50.372Z,1.27
2024-02-15T06:05:19.193Z,1.67
2024-02-15T06:07:48.244Z,1.70
2024-02-15T06:10:15.835Z,1.63
2024-02-15T06:12:42.866Z,1.70
2024-02-15T06:15:10.781Z,1.53
2024-02-15T06:17:39.203Z,1.40
2024-02-15T06:20:07.087Z,1.47
2024-02-15T06:22:33.917Z,1.80
2024-02-15T06:25:02.125Z,1.87
2024-02-15T06:27:28.851Z,1.63
2024-02-15T06:29:55.853Z,1.63
2024-02-15T06:32:22.749Z,1.30
2024-02-15T06:34:49.514Z,2.03
2024-02-15T06:37:37.467Z,1.70
2024-02-15T06:40:07.173Z,1.67
2024-02-15T06:42:33.995Z,2.00
2024-02-15T06:45:00.801Z,2.33
2024-02-15T06:47:27.740Z,3.60
2024-02-15T06:49:54.580Z,2.47
2024-02-15T06:52:21.520Z,2.00
2024-02-15T06:54:48.291Z,1.80
2024-02-15T06:57:16.454Z,1.80
2024-02-15T06:59:43.199Z,1.97
2024-02-15T07:02:10.020Z,1.93
2024-02-15T07:04:37.056Z,2.17
2024-02-15T07:07:04.399Z,2.10
2024-02-15T07:09:31.313Z,2.00
2024-02-15T07:11:58.406Z,1.93
2024-02-15T07:14:26.706Z,1.97
2024-02-15T07:16:53.710Z,2.17
2024-02-15T07:19:20.898Z,1.70
2024-02-15T07:22:17.259Z,2.00
2024-02-15T07:24:44.144Z,1.67
2024-02-15T07:27:12.942Z,2.10
2024-02-15T07:29:41.710Z,2.27
2024-02-15T07:32:08.554Z,1.43
2024-02-15T07:34:35.927Z,2.03
2024-02-15T07:37:03.912Z,1.60
2024-02-15T07:39:30.726Z,2.00
2024-02-15T07:41:57.526Z,1.50
2024-02-15T07:44:25.994Z,2.13
2024-02-15T07:46:55.259Z,1.93
2024-02-15T07:49:22.256Z,2.17
2024-02-15T07:51:49.350Z,1.63
2024-02-15T07:54:16.158Z,1.60
2024-02-15T07:56:43.002Z,1.90
2024-02-15T07:59:09.780Z,1.60
2024-02-15T08:01:36.629Z,1.50
2024-02-15T08:04:05.280Z,1.80
2024-02-15T08:06:34.350Z,1.50
2024-02-15T08:09:01.294Z,1.80
2024-02-15T08:11:28.315Z,2.30
2024-02-15T08:13:55.782Z,1.60
2024-02-15T08:16:30.915Z,1.90
2024-02-15T08:18:57.982Z,1.40
2024-02-15T08:21:30.183Z,2.00
2024-02-15T08:23:59.431Z,1.60
2024-02-15T08:26:26.567Z,1.50
2024-02-15T08:28:53.461Z,2.00
2024-02-15T08:31:21.934Z,1.90
2024-02-15T08:33:48.793Z,1.80
2024-02-15T08:36:15.817Z,1.70
2024-02-15T08:38:44.107Z,2.13
2024-02-15T08:41:13.437Z,2.27
2024-02-15T08:43:40.300Z,2.40
2024-02-15T08:46:07.420Z,2.20
2024-02-15T08:48:34.475Z,1.90
2024-02-15T08:51:01.493Z,1.77
2024-02-15T08:53:28.485Z,2.37
2024-02-15T08:55:56.944Z,1.73
2024-02-15T08:58:29.226Z,2.23
2024-02-15T09:00:58.945Z,1.90
2024-02-15T09:03:31.913Z,2.10
2024-02-15T09:06:06.963Z,2.40
2024-02-15T09:08:38.656Z,1.70
2024-02-15T09:11:20.353Z,2.20
2024-02-15T09:13:47.114Z,1.90
2024-02-15T09:16:13.971Z,1.50
2024-02-15T09:18:40.864Z,1.77
2024-02-15T09:21:07.754Z,1.60
2024-02-15T09:23:34.654Z,1.50
2024-02-15T09:26:01.525Z,1.40
2024-02-15T09:28:29.739Z,1.50
2024-02-15T09:31:02.647Z,1.90
2024-02-15T09:33:29.862Z,1.50
2024-02-15T09:36:05.841Z,1.50
2024-02-15T09:38:32.719Z,1.40
2024-02-15T09:41:02.274Z,1.50
2024-02-15T09:43:33.124Z,1.40
2024-02-15T09:46:00.040Z,1.97
2024-02-15T09:48:43.545Z,1.20
2024-02-15T09:51:24.040Z,1.80
2024-02-15T09:54:01.873Z,1.43
2024-02-15T09:56:31.620Z,1.50
2024-02-15T09:59:01.188Z,1.80
2024-02-15T10:01:34.489Z,1.80
2024-02-15T10:04:05.682Z,1.90
2024-02-15T10:06:35.376Z,2.13
2024-02-15T10:09:27.277Z,1.80
2024-02-15T10:11:57.747Z,2.10
2024-02-15T10:14:27.070Z,2.40
2024-02-15T10:17:12.590Z,1.70
2024-02-15T10:19:41.614Z,2.27
2024-02-15T10:22:16.267Z,2.30
2024-02-15T10:24:46.145Z,2.37
2024-02-15T10:27:23.103Z,2.40
2024-02-15T10:29:51.928Z,2.07
2024-02-15T10:32:23.222Z,2.30
2024-02-15T10:34:53.165Z,2.10
2024-02-15T10:37:35.002Z,2.30
2024-02-15T10:40:18.396Z,1.97
2024-02-15T10:42:49.003Z,2.30
2024-02-15T10:45:20.766Z,2.40
2024-02-15T10:47:59.577Z,1.93
2024-02-15T10:50:54.515Z,2.60
2024-02-15T10:53:30.201Z,2.07
2024-02-15T10:59:16.674Z,2.07
2024-02-15T11:01:57.329Z,2.43
2024-02-15T11:04:26.751Z,2.07
2024-02-15T11:07:02.331Z,1.83
2024-02-15T11:09:36.236Z,2.20
2024-02-15T11:12:22.490Z,2.17
2024-02-15T11:14:51.960Z,2.30
2024-02-15T11:17:51.298Z,1.90
2024-02-15T11:20:53.731Z,1.50
2024-02-15T11:23:35.679Z,2.07
2024-02-15T11:28:47.292Z,1.63
2024-02-15T11:31:53.715Z,1.80
2024-02-15T11:34:42.971Z,1.57
2024-02-15T11:37:33.018Z,1.73
2024-02-15T11:40:08.326Z,1.70
2024-02-15T11:42:37.179Z,1.73
2024-02-15T11:45:05.078Z,1.90
2024-02-15T11:47:33.971Z,2.10
2024-02-15T11:50:02.272Z,1.70
2024-02-15T11:52:30.807Z,1.90
2024-02-15T11:55:07.320Z,1.90
2024-02-15T11:57:34.402Z,1.90
2024-02-15T12:00:01.275Z,1.80
2024-02-15T12:02:28.103Z,1.60
2024-02-15T12:04:54.927Z,1.50
2024-02-15T12:07:23.006Z,1.70
2024-02-15T12:09:49.856Z,2.27
2024-02-15T12:12:18.329Z,2.07
2024-02-15T12:14:45.449Z,1.90
2024-02-15T12:17:13.604Z,1.40
2024-02-15T12:19:40.430Z,1.90
2024-02-15T12:22:07.367Z,1.90
2024-02-15T12:24:35.080Z,1.67
2024-02-15T12:27:02.256Z,1.80
2024-02-15T12:29:30.538Z,1.97
2024-02-15T12:31:57.738Z,1.43
2024-02-15T12:34:24.510Z,1.97
2024-02-15T12:36:51.382Z,1.80
2024-02-15T12:39:26.114Z,2.60
2024-02-15T12:41:53.035Z,1.90
2024-02-15T12:44:20.190Z,2.13
2024-02-15T12:46:48.321Z,2.70
2024-02-15T12:49:29.619Z,1.83
2024-02-15T12:52:35.382Z,2.10
2024-02-15T12:55:12.865Z,2.40
2024-02-15T12:57:39.881Z,2.10
2024-02-15T13:00:07.981Z,2.53
2024-02-15T13:02:36.135Z,2.13
2024-02-15T13:05:03.094Z,2.83
2024-02-15T13:07:32.706Z,2.97
2024-02-15T13:09:59.479Z,2.70
2024-02-15T13:12:27.382Z,2.70
2024-02-15T13:14:54.329Z,2.60
2024-02-15T13:17:25.319Z,2.30
2024-02-15T13:19:57.673Z,3.00
2024-02-15T13:22:26.431Z,2.60
2024-02-15T13:24:54.536Z,3.10
2024-02-15T13:27:27.577Z,3.60
2024-02-15T13:29:57.616Z,2.90
2024-02-15T13:32:25.906Z,6.80
2024-02-15T13:35:09.443Z,4.43
2024-02-15T13:37:39.663Z,3.20
2024-02-15T13:40:19.406Z,2.97
2024-02-15T13:42:47.585Z,6.73
2024-02-15T13:45:21.189Z,2.87
2024-02-15T13:48:13.495Z,3.90
2024-02-15T13:50:41.888Z,2.80
2024-02-15T13:53:08.837Z,3.50
2024-02-15T13:55:36.500Z,4.47
2024-02-15T13:58:03.791Z,3.43
2024-02-15T14:00:31.385Z,2.73
2024-02-15T14:03:00.980Z,5.60
2024-02-15T14:05:29.355Z,2.47
2024-02-15T14:08:00.380Z,13.00
2024-02-15T14:10:29.680Z,17.40
2024-02-15T14:12:56.758Z,2.50
2024-02-15T14:15:35.506Z,4.20
2024-02-15T14:18:08.047Z,10.00
2024-02-15T14:20:35.327Z,5.97
2024-02-15T14:23:07.343Z,5.37
2024-02-15T14:25:34.776Z,2.83
2024-02-15T14:30:58.870Z,2.70
2024-02-15T14:33:33.139Z,3.90
2024-02-15T14:36:03.944Z,2.90
2024-02-15T14:38:33.156Z,4.90
2024-02-15T14:41:05.283Z,2.60
2024-02-15T14:43:37.741Z,5.90
2024-02-15T14:46:04.910Z,4.57
2024-02-15T14:48:32.059Z,3.33
2024-02-15T14:50:59.116Z,3.10
2024-02-15T14:53:26.225Z,2.70
2024-02-15T14:55:54.668Z,3.20
2024-02-15T14:58:22.840Z,2.40
2024-02-15T15:00:49.832Z,2.70
2024-02-15T15:03:17.692Z,2.50
2024-02-15T15:05:45.334Z,2.20
2024-02-15T15:08:12.062Z,2.27
2024-02-15T15:10:38.816Z,2.40
2024-02-15T15:13:07.009Z,2.67
2024-02-15T15:15:35.810Z,2.77
2024-02-15T15:18:02.652Z,3.10
2024-02-15T15:20:29.430Z,2.13
2024-02-15T15:22:57.116Z,2.90
2024-02-15T15:25:26.146Z,2.57
2024-02-15T15:27:52.888Z,2.60
2024-02-15T15:30:24.796Z,2.70
2024-02-15T15:32:51.790Z,2.50
2024-02-15T15:35:18.626Z,2.57
2024-02-15T15:37:45.377Z,2.90
2024-02-15T15:40:12.934Z,3.00
2024-02-15T15:42:40.675Z,3.10
2024-02-15T15:45:08.677Z,2.77
2024-02-15T15:47:37.447Z,2.90
2024-02-15T15:50:04.905Z,3.20
2024-02-15T15:52:31.710Z,3.80
2024-02-15T15:54:58.548Z,2.87
2024-02-15T15:57:25.464Z,3.33
2024-02-15T15:59:58.515Z,2.83
2024-02-15T16:02:25.493Z,4.37
2024-02-15T16:04:57.886Z,2.90
2024-02-15T16:07:26.659Z,3.30
2024-02-15T16:09:53.456Z,4.03
2024-02-15T16:12:20.214Z,5.40
2024-02-15T16:14:49.270Z,5.70
2024-02-15T16:17:16.137Z,20.80
2024-02-15T16:19:42.931Z,3.13
2024-02-15T16:22:11.111Z,3.33
2024-02-15T16:24:37.917Z,3.03
2024-02-15T16:27:05.343Z,3.30
2024-02-15T16:29:32.098Z,2.53
2024-02-15T16:31:58.893Z,3.10
2024-02-15T16:34:26.305Z,3.27
2024-02-15T16:36:55.039Z,3.50
2024-02-15T16:39:25.571Z,3.93
2024-02-15T16:41:54.378Z,3.03
2024-02-15T16:44:22.678Z,2.97
2024-02-15T16:46:49.592Z,2.83
2024-02-15T16:49:16.393Z,3.47
2024-02-15T16:51:43.507Z,2.83
2024-02-15T16:54:13.882Z,2.50
2024-02-15T16:56:44.506Z,3.37
2024-02-15T16:59:12.754Z,3.30
2024-02-15T17:01:41.152Z,3.30
2024-02-15T17:04:07.980Z,3.20
2024-02-15T17:06:35.164Z,2.80
2024-02-15T17:09:02.038Z,3.17
2024-02-15T17:11:28.866Z,2.90
2024-02-15T17:13:57.942Z,3.40
2024-02-15T17:16:24.702Z,2.90
2024-02-15T17:18:51.604Z,2.70
2024-02-15T17:21:18.428Z,3.00
2024-02-15T17:23:45.296Z,3.20
2024-02-15T17:26:12.049Z,2.80
2024-02-15T17:28:38.892Z,3.30
2024-02-15T17:31:06.973Z,3.53
2024-02-15T17:33:33.786Z,3.40
2024-02-15T17:36:00.634Z,3.20
2024-02-15T17:38:27.408Z,3.23
2024-02-15T17:40:54.149Z,3.00
2024-02-15T17:43:20.872Z,2.90
2024-02-15T17:45:50.563Z,3.40
2024-02-15T17:48:18.806Z,2.63
2024-02-15T17:50:45.714Z,2.73
2024-02-15T17:53:14.615Z,3.70
2024-02-15T17:55:41.640Z,2.90
2024-02-15T17:58:19.767Z,3.20
2024-02-15T18:00:53.072Z,3.13
2024-02-15T18:03:21.371Z,2.77
2024-02-15T18:05:48.199Z,3.83
2024-02-15T18:08:15.148Z,3.37
2024-02-15T18:10:42.140Z,2.87
2024-02-15T18:13:09.196Z,3.43
2024-02-15T18:15:36.203Z,3.70
2024-02-15T18:18:03.225Z,3.80
2024-02-15T18:20:31.565Z,3.60
2024-02-15T18:22:58.403Z,3.80
2024-02-15T18:25:25.379Z,3.50
2024-02-15T18:27:52.212Z,4.20
2024-02-15T18:30:20.267Z,4.20
2024-02-15T18:32:48.277Z,4.70
2024-02-15T18:35:15.972Z,5.50
2024-02-15T18:37:44.437Z,4.33
2024-02-15T18:40:24.159Z,5.00
2024-02-15T18:42:58.385Z,4.90
2024-02-15T18:45:25.609Z,4.60
2024-02-15T18:47:56.678Z,3.80
2024-02-15T18:50:24.003Z,4.77
2024-02-15T18:53:37.914Z,3.53
2024-02-15T18:56:37.727Z,3.23
2024-02-15T18:59:46.203Z,3.60
2024-02-15T19:02:23.612Z,3.57
2024-02-15T19:05:15.635Z,3.43
2024-02-15T19:07:45.827Z,3.50
2024-02-15T19:10:13.215Z,3.43
2024-02-15T19:12:43.971Z,3.10
2024-02-15T19:15:11.890Z,3.40
2024-02-15T19:17:40.631Z,4.30
2024-02-15T19:20:10.198Z,3.17
2024-02-15T19:22:37.645Z,3.40
2024-02-15T19:25:06.415Z,3.47
2024-02-15T19:27:33.723Z,3.43
2024-02-15T19:30:02.390Z,3.93
2024-02-15T19:32:30.181Z,3.10
2024-02-15T19:34:57.088Z,3.43
2024-02-15T19:37:24.001Z,3.73
2024-02-15T19:39:50.772Z,3.90
2024-02-15T19:42:17.701Z,3.33
2024-02-15T19:44:44.696Z,4.30
2024-02-15T19:47:12.936Z,3.20
2024-02-15T19:49:39.740Z,3.37
2024-02-15T19:52:06.892Z,3.60
2024-02-15T19:54:33.782Z,3.20
2024-02-15T19:57:00.551Z,4.30
2024-02-15T19:59:27.277Z,3.33
2024-02-15T20:01:54.122Z,3.27
2024-02-15T20:04:24.549Z,3.50
2024-02-15T20:06:53.601Z,2.73
2024-02-15T20:09:25.281Z,2.90
2024-02-15T20:11:57.481Z,3.77
2024-02-15T20:14:24.277Z,3.27
2024-02-15T20:16:51.451Z,4.20
2024-02-15T20:19:18.280Z,3.93
2024-02-15T20:21:46.609Z,3.90
2024-02-15T20:24:15.001Z,4.20
2024-02-15T20:26:41.997Z,3.70
2024-02-15T20:29:09.082Z,4.20
2024-02-15T20:31:35.903Z,3.87
2024-02-15T20:34:02.853Z,4.47
2024-02-15T20:36:29.830Z,4.00
2024-02-15T20:38:58.262Z,4.97
2024-02-15T20:41:25.045Z,3.90
2024-02-15T20:43:52.280Z,4.23
2024-02-15T20:46:27.090Z,4.23
2024-02-15T20:48:54.207Z,3.53
2024-02-15T20:51:21.308Z,4.27
2024-02-15T20:53:50.484Z,5.30
2024-02-15T20:56:20.595Z,3.60
2024-02-15T20:58:47.459Z,4.00
2024-02-15T21:01:14.722Z,4.80
2024-02-15T21:03:42.017Z,4.90
2024-02-15T21:06:08.942Z,4.50
2024-02-15T21:08:38.690Z,4.10
2024-02-15T21:11:05.632Z,4.30
2024-02-15T21:13:33.819Z,4.97
2024-02-15T21:16:00.598Z,4.67
2024-02-15T21:18:29.557Z,4.63
2024-02-15T21:20:56.521Z,4.80
2024-02-15T21:23:27.037Z,4.40
2024-02-15T21:25:53.991Z,5.60
2024-02-15T21:28:21.797Z,4.80
2024-02-15T21:30:50.034Z,4.87
2024-02-15T21:33:16.845Z,5.20
2024-02-15T21:35:43.745Z,5.87
2024-02-15T21:38:10.944Z,4.60
2024-02-15T21:40:39.141Z,5.00
2024-02-15T21:43:06.257Z,5.90
2024-02-15T21:45:33.335Z,4.80
2024-02-15T21:48:03.532Z,5.37
2024-02-15T21:50:30.369Z,4.90
2024-02-15T21:52:57.327Z,5.00
2024-02-15T21:55:24.030Z,6.23
2024-02-15T21:57:50.827Z,5.23
2024-02-15T22:00:18.038Z,5.97
2024-02-15T22:02:45.091Z,5.10
2024-02-15T22:05:13.705Z,4.90
2024-02-15T22:07:40.777Z,5.60
2024-02-15T22:10:14.377Z,4.67
2024-02-15T22:12:41.211Z,5.30
2024-02-15T22:15:09.690Z,4.80
2024-02-15T22:17:36.806Z,5.83
2024-02-15T22:20:03.969Z,4.90
2024-02-15T22:22:32.545Z,4.60
2024-02-15T22:25:01.656Z,6.10
2024-02-15T22:27:28.525Z,5.97
2024-02-15T22:29:55.448Z,5.80
2024-02-15T22:32:22.286Z,5.60
2024-02-15T22:34:49.519Z,6.57
2024-02-15T22:37:18.507Z,6.30
2024-02-15T22:39:46.843Z,5.40
2024-02-15T22:42:13.852Z,5.63
2024-02-15T22:44:42.080Z,6.57
2024-02-15T22:47:08.851Z,6.30
2024-02-15T22:49:35.707Z,5.27
2024-02-15T22:52:03.799Z,5.30
2024-02-15T22:54:30.669Z,5.57
2024-02-15T22:56:59.504Z,5.10
2024-02-15T22:59:26.521Z,6.23
2024-02-15T23:01:53.490Z,4.60
2024-02-15T23:04:20.462Z,5.10
2024-02-15T23:06:47.749Z,5.63
2024-02-15T23:09:14.544Z,4.10
2024-02-15T23:11:41.408Z,5.43
2024-02-15T23:14:09.537Z,4.87
2024-02-15T23:16:36.348Z,6.30
2024-02-15T23:19:03.383Z,6.50
2024-02-15T23:21:30.467Z,5.07
2024-02-15T23:23:57.412Z,5.83
2024-02-15T23:26:24.669Z,6.20
2024-02-15T23:28:51.666Z,5.80
2024-02-15T23:31:19.975Z,6.10
2024-02-15T23:33:46.835Z,5.80
2024-02-15T23:36:13.810Z,6.00
2024-02-15T23:38:40.698Z,5.57
2024-02-15T23:41:07.567Z,7.50
2024-02-15T23:43:34.593Z,6.70
2024-02-15T23:46:01.315Z,6.20
2024-02-15T23:48:29.986Z,5.80
2024-02-15T23:50:59.899Z,7.67
2024-02-15T23:53:26.671Z,5.97
2024-02-15T23:55:53.392Z,7.17
2024-02-15T23:58:20.166Z,6.13
